createdAt,value
2023-05-10T00:02:01.797Z,14.02
2023-05-10T00:04:30.366Z,13.80
2023-05-10T00:06:59.011Z,14.57
2023-05-10T00:09:27.616Z,11.07
2023-05-10T00:11:56.086Z,14.52
2023-05-10T00:14:24.611Z,14.05
2023-05-10T00:16:53.294Z,15.02
2023-05-10T00:19:21.894Z,17.85
2023-05-10T00:21:50.466Z,19.95
2023-05-10T00:24:19.028Z,17.58
2023-05-10T00:26:47.521Z,19.65
2023-05-10T00:29:16.005Z,22.15
2023-05-10T00:34:12.747Z,24.77
2023-05-10T00:36:41.714Z,26.55
2023-05-10T00:39:10.182Z,27.90
2023-05-10T00:41:38.754Z,28.17
2023-05-10T00:44:07.229Z,27.15
2023-05-10T00:46:36.131Z,26.30
2023-05-10T00:49:05.456Z,28.70
2023-05-10T00:51:34.195Z,30.63
2023-05-10T00:54:03.905Z,29.27
2023-05-10T00:56:32.606Z,28.52
2023-05-10T00:59:01.273Z,27.40
2023-05-10T01:01:29.957Z,31.60
2023-05-10T01:03:59.166Z,26.45
2023-05-10T01:06:28.704Z,26.33
2023-05-10T01:08:57.508Z,30.23
2023-05-10T01:11:26.246Z,31.52
2023-05-10T01:13:58.289Z,33.92
2023-05-10T01:18:56.635Z,40.60
2023-05-10T01:21:37.731Z,35.63
2023-05-10T01:24:28.088Z,32.72
2023-05-10T01:27:05.640Z,38.95
2023-05-10T01:30:09.253Z,43.53
2023-05-10T01:32:54.444Z,38.72
2023-05-10T01:35:42.904Z,44.80
2023-05-10T01:38:34.068Z,41.70
2023-05-10T01:41:11.599Z,37.20
2023-05-10T01:44:04.686Z,44.35
2023-05-10T01:46:38.505Z,39.97
2023-05-10T01:49:18.437Z,45.38
2023-05-10T01:51:52.616Z,41.05
2023-05-10T01:54:23.336Z,41.42
2023-05-10T01:56:59.701Z,40.17
2023-05-10T01:59:34.134Z,41.05
2023-05-10T02:02:05.406Z,37.08
2023-05-10T02:04:39.086Z,40.58
2023-05-10T02:07:09.449Z,39.47
2023-05-10T02:09:39.113Z,38.72
2023-05-10T02:12:09.378Z,39.70
2023-05-10T02:14:38.240Z,40.08
2023-05-10T02:17:08.648Z,40.42
2023-05-10T02:19:40.209Z,39.83
2023-05-10T02:22:10.004Z,37.20
2023-05-10T02:24:40.773Z,43.88
2023-05-10T02:27:11.554Z,38.25
2023-05-10T02:29:40.344Z,38.97
2023-05-10T02:32:12.906Z,41.47
2023-05-10T02:34:42.108Z,41.47
2023-05-10T02:37:11.092Z,45.05
2023-05-10T02:39:44.626Z,48.20
2023-05-10T02:42:16.849Z,44.97
2023-05-10T02:44:49.190Z,47.55
2023-05-10T02:47:19.262Z,41.63
2023-05-10T02:49:48.934Z,38.70
2023-05-10T02:52:24.251Z,42.97
2023-05-10T02:54:56.761Z,35.33
2023-05-10T02:57:32.735Z,37.70
2023-05-10T03:00:03.448Z,36.75
2023-05-10T03:02:32.065Z,37.20
2023-05-10T03:05:00.749Z,38.53
2023-05-10T03:07:29.352Z,39.88
2023-05-10T03:09:58.161Z,39.90
2023-05-10T03:12:43.621Z,40.72
2023-05-10T03:15:19.373Z,43.72
2023-05-10T03:17:56.456Z,39.72
2023-05-10T03:20:32.396Z,35.47
2023-05-10T03:23:39.451Z,37.03
2023-05-10T03:26:09.614Z,32.08
2023-05-10T03:28:39.042Z,35.17
2023-05-10T03:31:08.423Z,35.08
2023-05-10T03:33:36.959Z,35.00
2023-05-10T03:36:05.702Z,30.52
2023-05-10T03:38:34.046Z,32.08
2023-05-10T03:41:02.532Z,35.67
2023-05-10T03:43:30.929Z,35.58
2023-05-10T03:45:59.333Z,35.22
2023-05-10T03:48:27.809Z,37.88
2023-05-10T03:50:56.399Z,30.58
2023-05-10T03:53:25.518Z,36.28
2023-05-10T03:55:54.091Z,32.92
2023-05-10T03:58:22.845Z,33.78
2023-05-10T04:00:52.413Z,39.13
2023-05-10T04:03:22.068Z,34.38
2023-05-10T04:05:59.734Z,39.78
2023-05-10T04:08:28.445Z,43.22
2023-05-10T04:11:07.477Z,41.10
2023-05-10T04:13:36.346Z,40.47
2023-05-10T04:16:06.304Z,47.75
2023-05-10T04:18:34.834Z,57.25
2023-05-10T04:21:03.657Z,61.35
2023-05-10T04:23:32.223Z,62.95
2023-05-10T04:26:02.089Z,56.80
2023-05-10T04:28:30.706Z,58.28
2023-05-10T04:31:11.368Z,64.18
2023-05-10T04:33:39.860Z,66.60
2023-05-10T04:36:08.557Z,63.05
2023-05-10T04:38:37.213Z,70.43
2023-05-10T04:41:07.572Z,70.03
2023-05-10T04:43:37.139Z,63.72
2023-05-10T04:46:06.596Z,57.90
2023-05-10T04:48:35.293Z,59.38
2023-05-10T04:51:05.000Z,54.40
2023-05-10T04:53:33.663Z,48.05
2023-05-10T04:56:02.239Z,56.90
2023-05-10T04:58:30.701Z,52.15
2023-05-10T05:01:06.045Z,48.97
2023-05-10T05:03:34.873Z,46.05
2023-05-10T05:06:04.025Z,50.38
2023-05-10T05:08:32.689Z,42.47
2023-05-10T05:11:01.260Z,42.63
2023-05-10T05:13:29.826Z,41.30
2023-05-10T05:15:58.338Z,38.58
2023-05-10T05:18:26.738Z,37.63
2023-05-10T05:20:55.196Z,37.22
2023-05-10T05:23:25.819Z,40.80
2023-05-10T05:25:54.746Z,33.60
2023-05-10T05:28:23.181Z,32.38
2023-05-10T05:30:51.579Z,44.75
2023-05-10T05:33:20.053Z,33.28
2023-05-10T05:35:51.609Z,31.60
2023-05-10T05:38:20.122Z,27.23
2023-05-10T05:40:48.514Z,31.77
2023-05-10T05:43:16.956Z,30.92
2023-05-10T05:45:45.519Z,33.67
2023-05-10T05:48:14.044Z,27.58
2023-05-10T05:50:42.500Z,27.15
2023-05-10T05:53:12.105Z,25.65
2023-05-10T05:55:40.482Z,32.22
2023-05-10T05:58:09.005Z,27.38
2023-05-10T06:00:37.631Z,28.60
2023-05-10T06:03:07.362Z,31.67
2023-05-10T06:05:35.821Z,30.05
2023-05-10T06:08:04.479Z,25.80
2023-05-10T06:10:33.028Z,27.10
2023-05-10T06:13:01.684Z,25.63
2023-05-10T06:15:30.158Z,30.10
2023-05-10T06:17:58.699Z,27.20
2023-05-10T06:20:27.668Z,26.52
2023-05-10T06:22:56.212Z,24.65
2023-05-10T06:25:24.881Z,25.73
2023-05-10T06:27:58.095Z,23.85
2023-05-10T06:30:30.359Z,26.88
2023-05-10T06:33:00.337Z,27.83
2023-05-10T06:35:29.872Z,23.27
2023-05-10T06:37:58.330Z,26.45
2023-05-10T06:40:27.028Z,27.42
2023-05-10T06:42:55.553Z,29.50
2023-05-10T06:45:24.046Z,24.52
2023-05-10T06:47:53.854Z,24.20
2023-05-10T06:50:22.335Z,23.63
2023-05-10T06:52:52.388Z,29.02
2023-05-10T06:55:21.719Z,25.92
2023-05-10T06:57:50.131Z,28.35
2023-05-10T07:00:19.906Z,28.63
2023-05-10T07:02:48.911Z,28.88
2023-05-10T07:05:17.662Z,25.67
2023-05-10T07:07:46.378Z,26.92
2023-05-10T07:10:15.012Z,26.65
2023-05-10T07:12:43.788Z,21.67
2023-05-10T07:15:12.410Z,25.63
2023-05-10T07:17:43.148Z,26.65
2023-05-10T07:20:13.180Z,23.30
2023-05-10T07:22:42.056Z,25.38
2023-05-10T07:25:10.860Z,22.80
2023-05-10T07:27:39.461Z,30.10
2023-05-10T07:30:08.918Z,23.23
2023-05-10T07:32:37.477Z,26.73
2023-05-10T07:35:06.560Z,20.70
2023-05-10T07:37:35.026Z,21.60
2023-05-10T07:40:03.849Z,19.33
2023-05-10T07:42:32.261Z,19.65
2023-05-10T07:45:00.707Z,20.90
2023-05-10T07:47:29.139Z,16.58
2023-05-10T07:49:57.672Z,17.60
2023-05-10T07:52:26.198Z,19.88
2023-05-10T07:54:54.634Z,17.38
2023-05-10T07:57:23.442Z,17.05
2023-05-10T07:59:51.865Z,15.98
2023-05-10T08:02:20.414Z,11.88
2023-05-10T08:04:48.756Z,14.73
2023-05-10T08:07:17.625Z,10.82
2023-05-10T08:09:46.101Z,9.32
2023-05-10T08:12:14.576Z,11.55
2023-05-10T08:14:43.664Z,10.15
2023-05-10T08:17:12.219Z,8.32
2023-05-10T08:19:40.992Z,10.63
2023-05-10T08:22:09.620Z,11.43
2023-05-10T08:24:39.450Z,9.55
2023-05-10T08:27:09.019Z,10.73
2023-05-10T08:29:49.529Z,10.77
2023-05-10T08:32:19.007Z,10.87
2023-05-10T08:34:47.433Z,10.23
2023-05-10T08:37:15.863Z,10.20
2023-05-10T08:39:48.875Z,9.75
2023-05-10T08:42:21.485Z,11.18
2023-05-10T08:44:50.441Z,10.15
2023-05-10T08:47:19.632Z,11.65
2023-05-10T08:49:52.293Z,9.38
2023-05-10T08:52:22.786Z,7.57
2023-05-10T08:54:51.404Z,8.52
2023-05-10T08:57:20.233Z,6.15
2023-05-10T08:59:48.818Z,6.88
2023-05-10T09:02:19.155Z,6.72
2023-05-10T09:04:47.880Z,6.57
2023-05-10T09:07:17.644Z,8.13
2023-05-10T09:09:46.874Z,7.72
2023-05-10T09:12:17.270Z,6.65
2023-05-10T09:14:46.757Z,6.22
2023-05-10T09:17:15.416Z,5.30
2023-05-10T09:19:44.027Z,7.55
2023-05-10T09:22:12.638Z,6.72
2023-05-10T09:24:46.125Z,8.32
2023-05-10T09:27:14.622Z,9.57
2023-05-10T09:29:43.907Z,6.95
2023-05-10T09:32:13.854Z,9.48
2023-05-10T09:34:43.433Z,9.70
2023-05-10T09:37:11.911Z,7.38
2023-05-10T09:39:40.408Z,7.32
2023-05-10T09:42:10.524Z,8.70
2023-05-10T09:44:39.363Z,8.70
2023-05-10T09:47:07.938Z,6.85
2023-05-10T09:49:36.565Z,8.05
2023-05-10T09:52:07.494Z,10.85
2023-05-10T09:54:36.842Z,9.63
2023-05-10T09:57:05.982Z,10.77
2023-05-10T09:59:36.198Z,9.98
2023-05-10T10:02:04.918Z,8.88
2023-05-10T10:04:40.488Z,12.07
2023-05-10T10:07:09.480Z,10.35
2023-05-10T10:09:38.011Z,9.70
2023-05-10T10:12:06.779Z,9.10
2023-05-10T10:14:35.406Z,10.82
2023-05-10T10:17:08.142Z,8.32
2023-05-10T10:19:38.015Z,10.73
2023-05-10T10:22:07.237Z,9.27
2023-05-10T10:24:35.932Z,7.53
2023-05-10T10:27:15.941Z,9.35
2023-05-10T10:30:14.651Z,5.88
2023-05-10T10:33:10.113Z,18.42
2023-05-10T10:35:47.439Z,10.50
2023-05-10T10:38:16.512Z,8.05
2023-05-10T10:40:46.034Z,5.38
2023-05-10T10:43:28.420Z,7.10
2023-05-10T10:46:16.977Z,7.53
2023-05-10T10:48:52.517Z,7.25
2023-05-10T10:51:21.159Z,8.55
2023-05-10T10:53:49.933Z,9.38
2023-05-10T10:56:24.676Z,10.82
2023-05-10T10:58:54.539Z,12.18
2023-05-10T11:01:23.236Z,11.25
2023-05-10T11:04:01.219Z,12.65
2023-05-10T11:06:34.431Z,15.88
2023-05-10T11:09:08.198Z,14.55
2023-05-10T11:11:44.751Z,15.07
2023-05-10T11:14:13.341Z,14.90
2023-05-10T11:16:43.843Z,12.52
2023-05-10T11:19:14.360Z,13.30
2023-05-10T11:22:05.934Z,15.68
2023-05-10T11:24:34.806Z,16.37
2023-05-10T11:27:03.613Z,13.98
2023-05-10T11:29:32.103Z,18.08
2023-05-10T11:32:01.227Z,15.85
2023-05-10T11:34:31.744Z,15.25
2023-05-10T11:37:00.832Z,16.23
2023-05-10T11:39:32.787Z,15.20
2023-05-10T11:44:33.717Z,54.28
2023-05-10T11:47:02.994Z,19.17
2023-05-10T11:49:31.600Z,30.77
2023-05-10T11:52:07.812Z,19.98
2023-05-10T11:54:36.394Z,19.00
2023-05-10T11:57:05.239Z,19.02
2023-05-10T11:59:33.771Z,17.05
2023-05-10T12:02:02.555Z,18.73
2023-05-10T12:04:31.922Z,19.50
2023-05-10T12:07:00.526Z,18.23
2023-05-10T12:09:42.444Z,18.58
2023-05-10T12:12:18.476Z,16.63
2023-05-10T12:14:51.676Z,19.25
2023-05-10T12:17:20.276Z,25.38
2023-05-10T12:19:48.890Z,18.30
2023-05-10T12:22:21.950Z,22.38
2023-05-10T12:24:51.620Z,21.60
2023-05-10T12:27:20.165Z,23.13
2023-05-10T12:29:49.195Z,23.15
2023-05-10T12:32:17.754Z,13.38
2023-05-10T12:34:47.702Z,6.30
2023-05-10T12:37:18.519Z,8.35
2023-05-10T12:39:47.240Z,7.05
2023-05-10T12:42:15.766Z,10.80
2023-05-10T12:44:44.556Z,4.95
2023-05-10T12:47:13.000Z,3.42
2023-05-10T12:49:41.628Z,5.18
2023-05-10T12:52:10.271Z,3.70
2023-05-10T12:54:38.709Z,5.07
2023-05-10T12:57:07.295Z,3.85
2023-05-10T12:59:37.425Z,6.00
2023-05-10T13:02:07.552Z,5.45
2023-05-10T13:04:36.110Z,8.20
2023-05-10T13:07:04.614Z,5.68
2023-05-10T13:09:33.365Z,5.38
2023-05-10T13:12:02.394Z,6.78
2023-05-10T13:14:31.062Z,7.70
2023-05-10T13:16:59.589Z,7.88
2023-05-10T13:19:28.253Z,9.88
2023-05-10T13:21:56.662Z,13.55
2023-05-10T13:24:25.082Z,9.75
2023-05-10T13:26:53.667Z,12.85
2023-05-10T13:29:23.506Z,12.90
2023-05-10T13:31:52.402Z,13.95
2023-05-10T13:34:25.129Z,12.57
2023-05-10T13:36:54.839Z,12.00
2023-05-10T13:39:23.744Z,17.45
2023-05-10T13:41:53.869Z,17.15
2023-05-10T13:44:23.086Z,18.10
2023-05-10T13:46:51.611Z,16.85
2023-05-10T13:49:20.472Z,18.55
2023-05-10T13:51:49.261Z,12.65
2023-05-10T13:54:20.466Z,9.07
2023-05-10T13:56:49.480Z,11.67
2023-05-10T13:59:18.226Z,8.88
2023-05-10T14:01:46.988Z,9.95
2023-05-10T14:04:15.671Z,7.35
2023-05-10T14:06:44.248Z,6.20
2023-05-10T14:09:12.833Z,4.35
2023-05-10T14:11:44.127Z,7.00
2023-05-10T14:14:13.666Z,5.72
2023-05-10T14:16:45.716Z,6.40
2023-05-10T14:21:42.645Z,7.00
2023-05-10T14:24:11.223Z,5.25
2023-05-10T14:26:39.765Z,5.32
2023-05-10T14:29:09.935Z,4.50
2023-05-10T14:31:39.936Z,6.72
2023-05-10T14:34:08.411Z,7.95
2023-05-10T14:36:36.891Z,7.18
2023-05-10T14:39:05.996Z,8.80
2023-05-10T14:41:34.473Z,8.68
2023-05-10T14:44:04.333Z,9.98
2023-05-10T14:46:32.862Z,9.95
2023-05-10T14:49:01.575Z,10.10
2023-05-10T14:51:30.056Z,10.13
2023-05-10T14:53:58.831Z,9.93
2023-05-10T14:56:27.566Z,8.70
2023-05-10T14:58:57.162Z,11.27
2023-05-10T15:01:26.469Z,8.93
2023-05-10T15:03:55.994Z,10.70
2023-05-10T15:06:32.746Z,9.65
2023-05-10T15:09:02.522Z,13.00
2023-05-10T15:11:31.167Z,9.45
2023-05-10T15:13:59.762Z,10.13
2023-05-10T15:16:28.295Z,8.13
2023-05-10T15:18:56.753Z,8.18
2023-05-10T15:21:25.189Z,9.00
2023-05-10T15:23:53.646Z,9.77
2023-05-10T15:26:22.973Z,8.38
2023-05-10T15:28:51.507Z,10.48
2023-05-10T15:31:20.125Z,10.10
2023-05-10T15:33:48.646Z,8.45
2023-05-10T15:36:18.760Z,9.70
2023-05-10T15:38:48.147Z,8.70
2023-05-10T15:41:16.720Z,7.75
2023-05-10T15:43:45.508Z,7.18
2023-05-10T15:46:13.998Z,7.30
2023-05-10T15:48:42.857Z,8.02
2023-05-10T15:51:11.462Z,9.10
2023-05-10T15:53:49.504Z,6.70
2023-05-10T15:56:22.340Z,8.82
2023-05-10T15:58:51.290Z,6.72
2023-05-10T16:01:21.283Z,5.95
2023-05-10T16:03:49.958Z,8.13
2023-05-10T16:06:18.458Z,8.57
2023-05-10T16:08:46.837Z,8.93
2023-05-10T16:11:15.406Z,10.63
2023-05-10T16:13:43.840Z,8.18
2023-05-10T16:16:12.328Z,7.00
2023-05-10T16:18:41.187Z,6.70
2023-05-10T16:21:09.755Z,9.02
2023-05-10T16:23:39.692Z,11.52
2023-05-10T16:26:08.821Z,7.05
2023-05-10T16:28:37.644Z,7.15
2023-05-10T16:31:06.135Z,8.25
2023-05-10T16:33:34.631Z,8.32
2023-05-10T16:36:03.180Z,6.28
2023-05-10T16:38:31.937Z,5.35
2023-05-10T16:41:02.338Z,9.07
2023-05-10T16:43:32.798Z,5.72
2023-05-10T16:46:01.363Z,13.45
2023-05-10T16:48:29.931Z,7.40
2023-05-10T16:50:58.444Z,9.50
2023-05-10T16:53:27.051Z,6.97
2023-05-10T16:55:55.483Z,7.32
2023-05-10T16:58:24.041Z,7.95
2023-05-10T17:00:52.971Z,8.52
2023-05-10T17:03:21.531Z,5.60
2023-05-10T17:05:51.182Z,7.97
2023-05-10T17:08:22.081Z,9.02
2023-05-10T17:10:50.537Z,8.23
2023-05-10T17:13:18.947Z,5.95
2023-05-10T17:15:47.547Z,7.43
2023-05-10T17:18:17.305Z,9.20
2023-05-10T17:20:45.890Z,8.70
2023-05-10T17:23:14.555Z,10.25
2023-05-10T17:25:43.142Z,8.32
2023-05-10T17:28:12.747Z,6.20
2023-05-10T17:30:41.216Z,5.88
2023-05-10T17:33:10.689Z,7.18
2023-05-10T17:35:39.234Z,5.82
2023-05-10T17:38:09.715Z,6.30
2023-05-10T17:40:40.825Z,6.40
2023-05-10T17:43:09.602Z,10.30
2023-05-10T17:45:38.284Z,6.60
2023-05-10T17:48:07.761Z,7.75
2023-05-10T17:50:36.293Z,7.22
2023-05-10T17:53:04.779Z,7.95
2023-05-10T17:55:33.414Z,7.20
2023-05-10T17:58:02.040Z,7.10
2023-05-10T18:00:30.484Z,5.70
2023-05-10T18:02:58.955Z,7.55
2023-05-10T18:05:28.583Z,9.18
2023-05-10T18:07:57.302Z,6.43
2023-05-10T18:10:25.710Z,10.13
2023-05-10T18:12:54.169Z,9.75
2023-05-10T18:15:22.975Z,7.78
2023-05-10T18:17:51.432Z,9.30
2023-05-10T18:20:19.829Z,9.18
2023-05-10T18:22:48.591Z,9.07
2023-05-10T18:25:17.574Z,9.90
2023-05-10T18:27:46.158Z,9.20
2023-05-10T18:30:14.669Z,9.18
2023-05-10T18:32:43.472Z,9.63
2023-05-10T18:35:12.291Z,10.65
2023-05-10T18:37:40.863Z,9.30
2023-05-10T18:40:11.066Z,10.65
2023-05-10T18:42:39.767Z,9.40
2023-05-10T18:45:08.902Z,11.57
2023-05-10T18:47:37.590Z,11.98
2023-05-10T18:50:07.843Z,11.13
2023-05-10T18:52:39.399Z,9.40
2023-05-10T18:55:08.322Z,11.07
2023-05-10T18:57:41.180Z,9.98
2023-05-10T19:00:12.312Z,10.68
2023-05-10T19:02:41.570Z,12.73
2023-05-10T19:05:10.244Z,13.15
2023-05-10T19:07:39.414Z,10.55
2023-05-10T19:10:08.393Z,14.13
2023-05-10T19:12:37.447Z,12.95
2023-05-10T19:15:06.511Z,13.45
2023-05-10T19:17:36.859Z,14.30
2023-05-10T19:20:07.072Z,11.50
2023-05-10T19:22:47.258Z,14.63
2023-05-10T19:25:29.289Z,13.00
2023-05-10T19:27:58.498Z,13.45
2023-05-10T19:30:28.041Z,12.38
2023-05-10T19:32:56.562Z,13.50
2023-05-10T19:35:25.377Z,13.15
2023-05-10T19:37:54.259Z,13.32
2023-05-10T19:40:22.806Z,14.13
2023-05-10T19:42:51.215Z,12.25
2023-05-10T19:45:20.138Z,13.48
2023-05-10T19:47:48.672Z,14.45
2023-05-10T19:50:18.908Z,14.15
2023-05-10T19:52:48.057Z,13.48
2023-05-10T19:55:28.250Z,14.50
2023-05-10T19:57:57.897Z,12.18
2023-05-10T20:00:27.359Z,11.55
2023-05-10T20:02:55.939Z,10.57
2023-05-10T20:05:24.438Z,10.23
2023-05-10T20:07:52.995Z,12.18
2023-05-10T20:10:22.056Z,9.73
2023-05-10T20:12:52.021Z,11.68
2023-05-10T20:15:22.899Z,12.38
2023-05-10T20:17:53.173Z,12.95
2023-05-10T20:20:21.955Z,11.13
2023-05-10T20:22:51.031Z,11.25
2023-05-10T20:25:20.081Z,12.18
2023-05-10T20:27:50.825Z,13.50
2023-05-10T20:30:19.646Z,11.38
2023-05-10T20:32:48.430Z,11.65
2023-05-10T20:35:17.034Z,11.02
2023-05-10T20:37:45.539Z,11.75
2023-05-10T20:40:14.012Z,10.98
2023-05-10T20:42:42.549Z,10.57
2023-05-10T20:45:11.351Z,11.77
2023-05-10T20:47:39.755Z,10.88
2023-05-10T20:50:08.550Z,9.77
2023-05-10T20:52:37.118Z,11.43
2023-05-10T20:55:06.040Z,11.43
2023-05-10T20:57:34.457Z,12.13
2023-05-10T21:00:03.414Z,9.50
2023-05-10T21:02:31.909Z,10.80
2023-05-10T21:05:00.531Z,8.25
2023-05-10T21:07:29.175Z,13.07
2023-05-10T21:09:57.658Z,12.02
2023-05-10T21:12:26.224Z,10.75
2023-05-10T21:14:54.615Z,9.60
2023-05-10T21:17:23.162Z,13.13
2023-05-10T21:19:51.686Z,7.72
2023-05-10T21:22:20.242Z,11.57
2023-05-10T21:24:48.591Z,10.40
2023-05-10T21:27:17.010Z,10.57
2023-05-10T21:29:45.769Z,11.43
2023-05-10T21:32:15.031Z,13.25
2023-05-10T21:34:43.527Z,13.50
2023-05-10T21:37:11.929Z,17.55
2023-05-10T21:39:40.356Z,17.33
2023-05-10T21:42:08.798Z,16.73
2023-05-10T21:44:38.598Z,18.02
2023-05-10T21:47:06.992Z,20.33
2023-05-10T21:49:35.725Z,16.75
2023-05-10T21:52:04.227Z,17.00
2023-05-10T21:54:32.804Z,17.40
2023-05-10T21:57:01.281Z,19.02
2023-05-10T21:59:29.741Z,15.77
2023-05-10T22:01:59.321Z,16.45
2023-05-10T22:04:27.716Z,19.38
2023-05-10T22:06:56.149Z,15.68
2023-05-10T22:09:25.424Z,19.20
2023-05-10T22:11:53.801Z,18.65
2023-05-10T22:14:22.901Z,17.40
2023-05-10T22:16:51.345Z,17.58
2023-05-10T22:19:19.796Z,15.68
2023-05-10T22:21:48.268Z,14.30
2023-05-10T22:24:16.724Z,14.63
2023-05-10T22:26:45.335Z,14.88
2023-05-10T22:29:13.724Z,14.13
2023-05-10T22:31:42.137Z,18.10
2023-05-10T22:34:10.757Z,16.13
2023-05-10T22:36:39.232Z,15.15
2023-05-10T22:39:07.610Z,16.73
2023-05-10T22:41:36.049Z,18.55
2023-05-10T22:44:04.994Z,17.60
2023-05-10T22:46:33.429Z,17.33
2023-05-10T22:49:01.873Z,15.32
2023-05-10T22:51:30.273Z,16.88
2023-05-10T22:53:58.768Z,16.08
2023-05-10T22:56:27.318Z,16.80
2023-05-10T22:58:56.966Z,17.33
2023-05-10T23:01:25.650Z,16.35
2023-05-10T23:03:54.135Z,19.15
2023-05-10T23:06:22.551Z,15.52
2023-05-10T23:08:50.956Z,15.40
2023-05-10T23:11:19.436Z,17.73
2023-05-10T23:13:48.279Z,19.63
2023-05-10T23:16:17.068Z,15.65
2023-05-10T23:18:45.803Z,18.98
2023-05-10T23:21:14.287Z,19.73
2023-05-10T23:23:42.696Z,16.98
2023-05-10T23:26:11.351Z,19.42
2023-05-10T23:28:39.750Z,17.88
2023-05-10T23:31:08.166Z,18.77
2023-05-10T23:33:36.606Z,19.27
2023-05-10T23:36:05.250Z,17.95
2023-05-10T23:38:33.670Z,20.73
2023-05-10T23:41:02.151Z,21.05
2023-05-10T23:43:30.594Z,18.00
2023-05-10T23:45:59.467Z,18.63
2023-05-10T23:48:28.011Z,18.77
2023-05-10T23:50:56.438Z,19.88
2023-05-10T23:53:24.823Z,17.85
2023-05-10T23:55:53.332Z,19.02
2023-05-10T23:58:22.000Z,19.67
